createdAt,value
2022-09-20T00:00:50.673Z,100745.38
2022-09-20T00:03:55.460Z,100742.59
2022-09-20T00:06:58.456Z,100743.38
2022-09-20T00:10:02.563Z,100741.59
2022-09-20T00:13:06.152Z,100730.84
2022-09-20T00:16:11.029Z,100743.31
2022-09-20T00:19:19.723Z,100750.44
2022-09-20T00:22:22.419Z,100737.19
2022-09-20T00:25:26.560Z,100756.56
2022-09-20T00:28:30.183Z,100757.34
2022-09-20T00:31:32.871Z,100749.91
2022-09-20T00:34:53.120Z,100754.63
2022-09-20T00:37:55.870Z,100759.09
2022-09-20T00:41:00.444Z,100760.88
2022-09-20T00:44:04.011Z,100760.75
2022-09-20T00:47:14.147Z,100758.91
2022-09-20T00:50:27.818Z,100752.63
2022-09-20T00:53:34.199Z,100761.53
2022-09-20T00:56:44.006Z,100763.25
2022-09-20T00:59:50.273Z,100755.97
2022-09-20T01:02:58.185Z,100763.97
2022-09-20T01:06:05.383Z,100766.72
2022-09-20T01:09:08.769Z,100755.06
2022-09-20T01:12:17.416Z,100756.00
2022-09-20T01:15:20.940Z,100754.09
2022-09-20T01:18:25.287Z,100753.41
2022-09-20T01:21:29.728Z,100755.22
2022-09-20T01:24:40.599Z,100748.19
2022-09-20T01:27:47.167Z,100756.25
2022-09-20T01:30:59.624Z,100754.63
2022-09-20T01:34:09.510Z,100749.44
2022-09-20T01:37:19.820Z,100747.66
2022-09-20T01:40:31.787Z,100750.47
2022-09-20T01:43:42.136Z,100741.50
2022-09-20T01:46:47.147Z,100752.31
2022-09-20T01:49:57.294Z,100745.25
2022-09-20T01:53:17.944Z,100750.53
2022-09-20T01:56:52.103Z,100745.13
2022-09-20T02:00:06.550Z,100737.88
2022-09-20T02:03:55.607Z,100747.78
2022-09-20T02:07:18.512Z,100750.63
2022-09-20T02:10:42.377Z,100752.56
2022-09-20T02:14:12.340Z,100747.28
2022-09-20T02:17:25.128Z,100751.88
2022-09-20T02:20:34.377Z,100742.16
2022-09-20T02:23:47.710Z,100753.03
2022-09-20T02:27:08.094Z,100752.22
2022-09-20T02:30:23.973Z,100752.31
2022-09-20T02:33:49.972Z,100748.06
2022-09-20T02:37:07.972Z,100764.03
2022-09-20T02:40:27.548Z,100760.22
2022-09-20T02:43:38.062Z,100752.78
2022-09-20T02:46:49.393Z,100754.47
2022-09-20T02:50:02.122Z,100763.38
2022-09-20T02:53:20.031Z,100751.59
2022-09-20T02:56:32.701Z,100753.69
2022-09-20T02:59:44.914Z,100761.34
2022-09-20T03:02:58.603Z,100763.38
2022-09-20T03:06:10.406Z,100764.56
2022-09-20T03:09:25.015Z,100768.47
2022-09-20T03:12:36.940Z,100765.03
2022-09-20T03:15:53.315Z,100768.88
2022-09-20T03:18:58.894Z,100777.91
2022-09-20T03:22:13.089Z,100776.28
2022-09-20T03:25:53.159Z,100780.19
2022-09-20T03:29:03.587Z,100782.03
2022-09-20T03:32:24.163Z,100775.78
2022-09-20T03:35:40.603Z,100778.59
2022-09-20T03:39:12.613Z,100787.59
2022-09-20T03:42:19.485Z,100783.25
2022-09-20T03:45:32.827Z,100782.47
2022-09-20T03:48:54.094Z,100782.59
2022-09-20T03:52:05.730Z,100788.03
2022-09-20T03:55:38.647Z,100787.31
2022-09-20T03:58:59.815Z,100797.25
2022-09-20T04:02:30.174Z,100791.00
2022-09-20T04:05:45.638Z,100800.97
2022-09-20T04:09:09.402Z,100808.19
2022-09-20T04:12:24.291Z,100801.97
2022-09-20T04:15:38.808Z,100812.75
2022-09-20T04:18:48.171Z,100807.44
2022-09-20T04:21:57.003Z,100803.84
2022-09-20T04:25:06.111Z,100792.25
2022-09-20T04:28:17.551Z,100801.25
2022-09-20T04:31:32.015Z,100807.50
2022-09-20T04:34:57.475Z,100813.81
2022-09-20T04:38:06.566Z,100804.88
2022-09-20T04:41:41.857Z,100805.84
2022-09-20T04:45:18.227Z,100814.91
2022-09-20T04:48:46.140Z,100808.72
2022-09-20T04:52:27.147Z,100814.22
2022-09-20T04:55:58.889Z,100822.41
2022-09-20T04:59:07.799Z,100829.63
2022-09-20T05:02:42.710Z,100836.94
2022-09-20T05:06:09.664Z,100837.88
2022-09-20T05:09:37.714Z,100841.47
2022-09-20T05:13:01.044Z,100837.88
2022-09-20T05:16:07.241Z,100842.34
2022-09-20T05:19:26.492Z,100845.88
2022-09-20T05:22:58.375Z,100853.94
2022-09-20T05:26:12.450Z,100848.47
2022-09-20T05:29:22.798Z,100850.13
2022-09-20T05:32:32.071Z,100858.00
2022-09-20T05:35:45.864Z,100853.28
2022-09-20T05:38:52.120Z,100859.22
2022-09-20T05:41:59.136Z,100859.81
2022-09-20T05:45:17.594Z,100874.84
2022-09-20T05:48:27.696Z,100878.97
2022-09-20T05:51:44.789Z,100873.34
2022-09-20T05:55:07.789Z,100880.28
2022-09-20T05:58:29.718Z,100871.97
2022-09-20T06:01:35.337Z,100878.81
2022-09-20T06:04:46.760Z,100879.38
2022-09-20T06:08:08.569Z,100874.47
2022-09-20T06:11:24.585Z,100878.47
2022-09-20T06:14:39.941Z,100867.31
2022-09-20T06:17:50.845Z,100878.50
2022-09-20T06:21:02.641Z,100878.91
2022-09-20T06:24:21.886Z,100877.63
2022-09-20T06:27:28.910Z,100873.78
2022-09-20T06:30:36.889Z,100868.84
2022-09-20T06:33:46.211Z,100870.34
2022-09-20T06:37:13.572Z,100869.19
2022-09-20T06:40:51.057Z,100872.47
2022-09-20T06:43:54.953Z,100868.47
2022-09-20T06:46:58.188Z,100865.66
2022-09-20T06:50:01.324Z,100874.63
2022-09-20T06:53:04.588Z,100883.47
2022-09-20T06:56:10.561Z,100883.69
2022-09-20T06:59:15.602Z,100876.53
2022-09-20T07:02:18.297Z,100878.06
2022-09-20T07:05:21.971Z,100881.47
2022-09-20T07:08:24.619Z,100884.94
2022-09-20T07:11:29.890Z,100883.78
2022-09-20T07:14:32.522Z,100894.22
2022-09-20T07:17:35.721Z,100895.72
2022-09-20T07:20:38.403Z,100896.47
2022-09-20T07:23:41.309Z,100893.75
2022-09-20T07:26:58.041Z,100889.97
2022-09-20T07:30:02.665Z,100896.13
2022-09-20T07:33:05.447Z,100901.41
2022-09-20T07:36:08.851Z,100893.19
2022-09-20T07:39:11.607Z,100891.41
2022-09-20T07:42:15.625Z,100889.31
2022-09-20T07:45:18.460Z,100892.34
2022-09-20T07:48:21.508Z,100892.56
2022-09-20T07:51:24.321Z,100895.34
2022-09-20T07:54:28.392Z,100895.91
2022-09-20T07:57:37.197Z,100896.63
2022-09-20T08:00:40.180Z,100894.59
2022-09-20T08:03:43.315Z,100901.69
2022-09-20T08:06:46.740Z,100898.25
2022-09-20T08:09:49.405Z,100890.94
2022-09-20T08:16:17.123Z,100901.28
2022-09-20T08:19:21.798Z,100896.63
2022-09-20T08:22:24.694Z,100898.00
2022-09-20T08:25:27.510Z,100910.06
2022-09-20T08:28:32.467Z,100900.91
2022-09-20T08:31:38.699Z,100899.28
2022-09-20T08:34:41.357Z,100895.34
2022-09-20T08:37:45.672Z,100895.69
2022-09-20T08:40:49.496Z,100886.94
2022-09-20T08:43:56.979Z,100897.69
2022-09-20T08:47:07.503Z,100897.53
2022-09-20T08:50:17.633Z,100897.97
2022-09-20T08:53:21.610Z,100902.38
2022-09-20T08:56:28.401Z,100904.19
2022-09-20T08:59:33.068Z,100900.03
2022-09-20T09:02:35.772Z,100904.22
2022-09-20T09:05:42.702Z,100887.19
2022-09-20T09:08:49.195Z,100891.88
2022-09-20T09:11:53.228Z,100902.44
2022-09-20T09:15:02.087Z,100903.31
2022-09-20T09:18:10.391Z,100912.31
2022-09-20T09:21:20.626Z,100899.19
2022-09-20T09:24:25.693Z,100910.00
2022-09-20T09:27:28.486Z,100900.44
2022-09-20T09:30:34.801Z,100891.06
2022-09-20T09:33:45.280Z,100910.56
2022-09-20T09:36:47.883Z,100903.06
2022-09-20T09:40:07.726Z,100885.94
2022-09-20T09:43:21.421Z,100899.53
2022-09-20T09:46:27.270Z,100887.91
2022-09-20T09:49:34.925Z,100888.72
2022-09-20T09:52:37.826Z,100884.09
2022-09-20T09:55:56.427Z,100880.84
2022-09-20T09:59:22.323Z,100883.38
2022-09-20T10:03:03.240Z,100879.00
2022-09-20T10:06:16.818Z,100880.25
2022-09-20T10:09:43.682Z,100869.06
2022-09-20T10:12:57.623Z,100867.09
2022-09-20T10:16:09.055Z,100868.94
2022-09-20T10:19:23.688Z,100859.50
2022-09-20T10:22:37.032Z,100859.59
2022-09-20T10:25:45.674Z,100866.34
2022-09-20T10:29:00.079Z,100859.19
2022-09-20T10:32:16.980Z,100862.06
2022-09-20T10:35:38.054Z,100851.47
2022-09-20T10:38:50.059Z,100834.38
2022-09-20T10:42:20.436Z,100829.38
2022-09-20T10:45:59.555Z,100829.56
2022-09-20T10:49:23.884Z,100831.53
2022-09-20T10:52:43.881Z,100831.44
2022-09-20T10:55:52.973Z,100826.00
2022-09-20T10:59:14.375Z,100826.34
2022-09-20T11:02:42.752Z,100823.31
2022-09-20T11:06:01.551Z,100815.59
2022-09-20T11:09:13.904Z,100815.13
2022-09-20T11:12:25.052Z,100829.38
2022-09-20T11:15:34.397Z,100831.16
2022-09-20T11:18:40.615Z,100834.63
2022-09-20T11:21:49.988Z,100818.13
2022-09-20T11:25:02.933Z,100865.59
2022-09-20T11:28:13.857Z,100901.81
2022-09-20T11:31:24.499Z,100905.53
2022-09-20T11:34:31.231Z,100909.13
2022-09-20T11:37:39.828Z,100917.41
2022-09-20T11:40:49.317Z,100912.59
2022-09-20T11:43:53.183Z,100908.22
2022-09-20T11:47:00.682Z,100903.00
2022-09-20T11:50:34.649Z,100898.97
2022-09-20T11:54:12.903Z,100894.78
2022-09-20T11:57:17.976Z,100878.06
2022-09-20T12:00:30.960Z,100875.50
2022-09-20T12:03:37.544Z,100866.28
2022-09-20T12:06:42.886Z,100848.72
2022-09-20T12:09:52.709Z,100847.50
2022-09-20T12:13:02.007Z,100847.84
2022-09-20T12:16:07.794Z,100844.00
2022-09-20T12:19:14.004Z,100840.59
2022-09-20T12:22:28.055Z,100837.88
2022-09-20T12:25:37.370Z,100838.22
2022-09-20T12:28:43.520Z,100818.56
2022-09-20T12:31:48.989Z,100798.03
2022-09-20T12:34:52.673Z,100796.66
2022-09-20T12:37:55.724Z,100802.28
2022-09-20T12:41:00.575Z,100814.06
2022-09-20T12:44:25.474Z,100790.56
2022-09-20T12:47:31.607Z,100788.19
2022-09-20T12:50:52.087Z,100800.22
2022-09-20T12:54:05.621Z,100793.31
2022-09-20T12:57:19.123Z,100789.06
2022-09-20T13:00:36.523Z,100782.13
2022-09-20T13:03:40.845Z,100787.84
2022-09-20T13:06:45.154Z,100776.59
2022-09-20T13:09:49.368Z,100778.31
2022-09-20T13:12:58.070Z,100775.00
2022-09-20T13:16:05.746Z,100772.63
2022-09-20T13:19:16.258Z,100762.22
2022-09-20T13:22:24.800Z,100749.63
2022-09-20T13:25:28.568Z,100752.94
2022-09-20T13:28:35.975Z,100762.41
2022-09-20T13:31:40.189Z,100760.38
2022-09-20T13:34:43.157Z,100754.78
2022-09-20T13:37:54.107Z,100764.09
2022-09-20T13:41:04.748Z,100765.22
2022-09-20T13:44:07.779Z,100772.22
2022-09-20T13:47:26.523Z,100771.13
2022-09-20T13:50:32.519Z,100772.38
2022-09-20T13:53:43.259Z,100772.69
2022-09-20T13:56:46.159Z,100772.00
2022-09-20T13:59:49.529Z,100779.75
2022-09-20T14:02:55.880Z,100780.41
2022-09-20T14:06:01.841Z,100781.44
2022-09-20T14:09:11.194Z,100796.34
2022-09-20T14:12:14.961Z,100783.63
2022-09-20T14:15:18.029Z,100797.81
2022-09-20T14:18:23.382Z,100790.75
2022-09-20T14:21:28.346Z,100795.00
2022-09-20T14:24:35.492Z,100796.91
2022-09-20T14:27:39.123Z,100797.19
2022-09-20T14:30:41.767Z,100798.75
2022-09-20T14:33:51.736Z,100801.84
2022-09-20T14:37:06.903Z,100794.28
2022-09-20T14:40:23.604Z,100784.63
2022-09-20T14:43:31.520Z,100783.75
2022-09-20T14:46:36.610Z,100773.66
2022-09-20T14:49:43.859Z,100783.13
2022-09-20T14:52:46.522Z,100788.59
2022-09-20T14:55:58.227Z,100785.06
2022-09-20T14:59:06.842Z,100776.75
2022-09-20T15:02:15.780Z,100793.38
2022-09-20T15:05:25.892Z,100786.69
2022-09-20T15:08:29.035Z,100790.78
2022-09-20T15:11:31.726Z,100798.69
2022-09-20T15:14:37.952Z,100807.25
2022-09-20T15:17:40.862Z,100808.44
2022-09-20T15:20:44.884Z,100806.00
2022-09-20T15:23:47.496Z,100815.41
2022-09-20T15:26:50.427Z,100817.63
2022-09-20T15:29:53.227Z,100816.56
2022-09-20T15:33:00.852Z,100825.16
2022-09-20T15:36:07.697Z,100825.72
2022-09-20T15:39:10.335Z,100825.63
2022-09-20T15:42:13.260Z,100835.34
2022-09-20T15:45:16.084Z,100828.63
2022-09-20T15:48:20.887Z,100836.34
2022-09-20T15:51:25.250Z,100837.31
2022-09-20T15:54:28.002Z,100840.53
2022-09-20T15:57:32.723Z,100841.03
2022-09-20T16:00:35.815Z,100834.31
2022-09-20T16:03:39.039Z,100830.34
2022-09-20T16:06:45.589Z,100838.22
2022-09-20T16:09:48.270Z,100840.31
2022-09-20T16:12:50.904Z,100845.63
2022-09-20T16:15:56.540Z,100830.72
2022-09-20T16:19:17.479Z,100849.34
2022-09-20T16:22:22.314Z,100856.06
2022-09-20T16:25:24.980Z,100859.97
2022-09-20T16:28:28.190Z,100858.88
2022-09-20T16:31:34.811Z,100863.81
2022-09-20T16:34:38.101Z,100872.59
2022-09-20T16:37:44.616Z,100868.28
2022-09-20T16:40:51.428Z,100858.81
2022-09-20T16:43:54.843Z,100871.72
2022-09-20T16:46:57.496Z,100873.78
2022-09-20T16:50:00.497Z,100859.78
2022-09-20T16:53:05.066Z,100879.09
2022-09-20T16:56:07.915Z,100871.22
2022-09-20T16:59:11.046Z,100882.38
2022-09-20T17:02:14.085Z,100885.47
2022-09-20T17:05:16.976Z,100887.50
2022-09-20T17:08:21.088Z,100897.91
2022-09-20T17:11:25.860Z,100902.81
2022-09-20T17:14:28.952Z,100916.84
2022-09-20T17:17:31.699Z,100926.22
2022-09-20T17:20:35.351Z,100923.53
2022-09-20T17:23:39.362Z,100923.91
2022-09-20T17:26:45.264Z,100933.13
2022-09-20T17:29:47.882Z,100936.84
2022-09-20T17:32:51.748Z,100937.03
2022-09-20T17:35:54.642Z,100943.81
2022-09-20T17:39:03.930Z,100942.53
2022-09-20T17:42:07.781Z,100948.59
2022-09-20T17:45:10.997Z,100953.38
2022-09-20T17:48:13.671Z,100966.66
2022-09-20T17:51:18.179Z,100960.19
2022-09-20T17:54:24.131Z,100957.56
2022-09-20T17:57:27.618Z,100966.16
2022-09-20T18:00:30.441Z,100966.28
2022-09-20T18:03:37.405Z,100981.69
2022-09-20T18:06:42.285Z,100985.78
2022-09-20T18:09:46.302Z,100992.88
2022-09-20T18:12:49.986Z,100997.47
2022-09-20T18:15:52.827Z,100996.94
2022-09-20T18:18:55.727Z,101000.63
2022-09-20T18:21:58.598Z,101005.91
2022-09-20T18:25:02.669Z,100996.97
2022-09-20T18:28:05.297Z,100991.06
2022-09-20T18:31:09.455Z,100997.44
2022-09-20T18:34:17.676Z,101001.19
2022-09-20T18:37:20.391Z,101000.94
2022-09-20T18:40:24.603Z,100997.53
2022-09-20T18:43:30.000Z,101000.41
2022-09-20T18:46:34.344Z,100996.81
2022-09-20T18:49:37.150Z,101016.81
2022-09-20T18:52:39.864Z,101023.22
2022-09-20T18:55:44.902Z,101030.31
2022-09-20T18:58:48.395Z,101015.81
2022-09-20T19:02:08.183Z,101012.25
2022-09-20T19:05:19.215Z,101017.59
2022-09-20T19:08:34.131Z,101017.06
2022-09-20T19:11:43.477Z,101023.50
2022-09-20T19:15:01.371Z,101030.69
2022-09-20T19:18:21.569Z,101038.81
2022-09-20T19:21:38.405Z,101043.44
2022-09-20T19:25:09.217Z,101054.31
2022-09-20T19:28:15.967Z,101057.81
2022-09-20T19:31:24.692Z,101060.78
2022-09-20T19:34:29.545Z,101066.25
2022-09-20T19:37:38.978Z,101065.59
2022-09-20T19:40:51.031Z,101068.38
2022-09-20T19:44:10.242Z,101072.91
2022-09-20T19:47:22.332Z,101075.72
2022-09-20T19:50:33.547Z,101080.44
2022-09-20T19:53:37.109Z,101078.81
2022-09-20T19:56:54.391Z,101081.03
2022-09-20T19:59:59.059Z,101082.97
2022-09-20T20:03:02.820Z,101084.91
2022-09-20T20:06:16.824Z,101080.63
2022-09-20T20:09:28.718Z,101084.28
2022-09-20T20:12:36.884Z,101095.28
2022-09-20T20:15:50.556Z,101089.19
2022-09-20T20:19:10.319Z,101093.88
2022-09-20T20:22:28.379Z,101094.81
2022-09-20T20:25:42.013Z,101105.78
2022-09-20T20:28:45.348Z,101102.44
2022-09-20T20:31:49.386Z,101102.75
2022-09-20T20:34:52.075Z,101110.13
2022-09-20T20:37:55.601Z,101108.56
2022-09-20T20:41:04.635Z,101106.03
2022-09-20T20:44:07.784Z,101107.88
2022-09-20T20:47:11.992Z,101112.63
2022-09-20T20:50:15.136Z,101114.75
2022-09-20T20:53:18.271Z,101121.25
2022-09-20T20:56:23.292Z,101109.97
2022-09-20T20:59:26.540Z,101113.63
2022-09-20T21:02:30.604Z,101117.53
2022-09-20T21:05:33.660Z,101117.81
2022-09-20T21:08:37.866Z,101120.75
2022-09-20T21:11:44.200Z,101129.94
2022-09-20T21:14:47.036Z,101128.28
2022-09-20T21:17:53.669Z,101127.56
2022-09-20T21:20:56.371Z,101131.16
2022-09-20T21:24:01.468Z,101135.63
2022-09-20T21:27:04.829Z,101140.16
2022-09-20T21:30:09.052Z,101135.75
2022-09-20T21:33:13.100Z,101147.72
2022-09-20T21:36:18.011Z,101139.91
2022-09-20T21:39:20.741Z,101141.13
2022-09-20T21:42:23.768Z,101144.06
2022-09-20T21:45:29.492Z,101149.59
2022-09-20T21:48:34.164Z,101149.78
2022-09-20T21:51:38.421Z,101150.75
2022-09-20T21:54:41.097Z,101149.16
2022-09-20T21:57:44.433Z,101154.72
2022-09-20T22:00:57.087Z,101153.06
2022-09-20T22:04:02.244Z,101155.84
2022-09-20T22:07:05.569Z,101152.31
2022-09-20T22:10:09.248Z,101151.50
2022-09-20T22:13:12.096Z,101157.91
2022-09-20T22:16:17.211Z,101161.59
2022-09-20T22:19:21.934Z,101166.16
2022-09-20T22:22:25.411Z,101166.28
2022-09-20T22:25:29.870Z,101168.22
2022-09-20T22:28:33.007Z,101172.84
2022-09-20T22:31:37.160Z,101170.25
2022-09-20T22:34:41.621Z,101172.16
2022-09-20T22:37:44.702Z,101174.88
2022-09-20T22:40:55.247Z,101174.06
2022-09-20T22:43:58.496Z,101175.06
2022-09-20T22:47:01.171Z,101172.41
2022-09-20T22:50:06.837Z,101174.34
2022-09-20T22:53:09.706Z,101167.44
2022-09-20T22:56:14.752Z,101178.19
2022-09-20T22:59:18.174Z,101180.97
2022-09-20T23:02:21.271Z,101188.22
2022-09-20T23:05:25.360Z,101184.63
2022-09-20T23:08:28.518Z,101179.31
2022-09-20T23:11:32.006Z,101180.34
2022-09-20T23:14:34.723Z,101180.34
2022-09-20T23:17:37.913Z,101188.50
2022-09-20T23:20:41.918Z,101186.81
2022-09-20T23:23:46.041Z,101184.19
2022-09-20T23:26:49.492Z,101196.03
2022-09-20T23:29:52.148Z,101179.94
2022-09-20T23:32:55.048Z,101185.38
2022-09-20T23:35:59.170Z,101186.31
2022-09-20T23:39:02.507Z,101180.13
2022-09-20T23:42:05.674Z,101180.25
2022-09-20T23:45:10.189Z,101182.16
2022-09-20T23:48:13.342Z,101184.06
2022-09-20T23:51:19.362Z,101198.47
2022-09-20T23:54:22.456Z,101192.31
2022-09-20T23:57:25.114Z,101191.53
